createdAt,value
2023-05-17T00:01:14.258Z,63.62
2023-05-17T00:03:42.346Z,61.52
2023-05-17T00:06:10.403Z,58.40
2023-05-17T00:08:38.455Z,59.20
2023-05-17T00:11:06.480Z,61.18
2023-05-17T00:13:34.540Z,62.95
2023-05-17T00:16:02.610Z,62.75
2023-05-17T00:18:30.708Z,59.35
2023-05-17T00:20:58.785Z,57.23
2023-05-17T00:23:26.665Z,58.67
2023-05-17T00:25:54.559Z,60.28
2023-05-17T00:28:22.664Z,61.26
2023-05-17T00:30:51.097Z,62.55
2023-05-17T00:33:19.091Z,63.02
2023-05-17T00:35:46.946Z,59.78
2023-05-17T00:38:14.815Z,57.11
2023-05-17T00:40:42.942Z,58.13
2023-05-17T00:43:10.867Z,59.93
2023-05-17T00:45:38.892Z,61.38
2023-05-17T00:48:06.873Z,62.20
2023-05-17T00:50:34.836Z,63.44
2023-05-17T00:53:02.737Z,60.83
2023-05-17T00:55:30.892Z,57.45
2023-05-17T00:57:58.810Z,58.13
2023-05-17T01:00:27.189Z,59.64
2023-05-17T01:02:55.110Z,60.83
2023-05-17T01:05:24.276Z,62.43
2023-05-17T01:07:52.076Z,62.56
2023-05-17T01:10:20.086Z,60.00
2023-05-17T01:12:59.203Z,57.64
2023-05-17T01:15:53.910Z,58.40
2023-05-17T01:18:45.590Z,60.43
2023-05-17T01:21:57.955Z,61.43
2023-05-17T01:24:59.734Z,62.38
2023-05-17T01:27:28.538Z,59.08
2023-05-17T01:29:57.700Z,58.09
2023-05-17T01:32:26.336Z,59.44
2023-05-17T01:34:54.413Z,60.62
2023-05-17T01:37:22.492Z,61.42
2023-05-17T01:39:50.671Z,62.25
2023-05-17T01:42:25.646Z,62.52
2023-05-17T01:45:18.065Z,59.63
2023-05-17T01:48:03.884Z,58.43
2023-05-17T01:50:32.941Z,59.86
2023-05-17T01:53:08.990Z,60.84
2023-05-17T01:55:54.427Z,61.77
2023-05-17T01:58:25.639Z,62.72
2023-05-17T02:00:56.804Z,60.56
2023-05-17T02:03:25.121Z,58.02
2023-05-17T02:05:55.220Z,58.27
2023-05-17T02:08:23.395Z,59.08
2023-05-17T02:10:54.298Z,59.97
2023-05-17T02:13:22.290Z,60.88
2023-05-17T02:15:50.423Z,61.56
2023-05-17T02:18:18.395Z,62.34
2023-05-17T02:20:46.544Z,62.93
2023-05-17T02:23:14.545Z,60.86
2023-05-17T02:25:42.522Z,58.74
2023-05-17T02:28:10.438Z,58.55
2023-05-17T02:30:41.692Z,59.57
2023-05-17T02:33:09.656Z,60.78
2023-05-17T02:35:37.768Z,61.68
2023-05-17T02:38:05.863Z,63.04
2023-05-17T02:40:33.795Z,62.13
2023-05-17T02:43:01.699Z,59.65
2023-05-17T02:45:30.954Z,57.10
2023-05-17T02:47:59.066Z,57.94
2023-05-17T02:50:26.854Z,59.27
2023-05-17T02:52:55.034Z,60.34
2023-05-17T02:55:22.934Z,61.35
2023-05-17T02:57:50.913Z,62.72
2023-05-17T03:00:19.119Z,62.57
2023-05-17T03:02:47.165Z,60.27
2023-05-17T03:05:15.767Z,57.03
2023-05-17T03:07:43.615Z,57.59
2023-05-17T03:10:12.067Z,58.97
2023-05-17T03:12:40.060Z,60.01
2023-05-17T03:15:08.623Z,60.71
2023-05-17T03:17:36.962Z,61.71
2023-05-17T03:20:07.732Z,63.07
2023-05-17T03:22:35.736Z,62.20
2023-05-17T03:25:05.289Z,60.05
2023-05-17T03:27:33.078Z,57.64
2023-05-17T03:30:01.858Z,58.30
2023-05-17T03:32:29.807Z,59.83
2023-05-17T03:34:57.787Z,60.78
2023-05-17T03:37:25.852Z,61.75
2023-05-17T03:39:54.061Z,63.03
2023-05-17T03:42:21.889Z,61.93
2023-05-17T03:44:49.775Z,59.38
2023-05-17T03:47:17.780Z,56.73
2023-05-17T03:49:45.903Z,57.79
2023-05-17T03:52:13.891Z,59.21
2023-05-17T03:54:41.842Z,60.10
2023-05-17T03:57:09.735Z,60.92
2023-05-17T03:59:37.713Z,61.65
2023-05-17T04:02:06.347Z,62.41
2023-05-17T04:04:34.325Z,62.68
2023-05-17T04:07:02.321Z,60.21
2023-05-17T04:09:32.196Z,57.62
2023-05-17T04:12:00.100Z,58.03
2023-05-17T04:14:28.056Z,59.18
2023-05-17T04:16:56.292Z,59.85
2023-05-17T04:19:24.906Z,60.36
2023-05-17T04:21:53.201Z,61.12
2023-05-17T04:24:31.733Z,62.29
2023-05-17T04:27:00.784Z,62.37
2023-05-17T04:29:31.031Z,59.45
2023-05-17T04:31:59.550Z,56.22
2023-05-17T04:34:27.658Z,57.24
2023-05-17T04:36:55.475Z,58.83
2023-05-17T04:39:23.403Z,58.93
2023-05-17T04:41:51.684Z,59.38
2023-05-17T04:44:19.655Z,59.64
2023-05-17T04:46:47.558Z,60.18
2023-05-17T04:49:15.460Z,60.52
2023-05-17T04:51:43.362Z,60.87
2023-05-17T04:54:11.156Z,60.67
2023-05-17T04:56:38.976Z,61.00
2023-05-17T04:59:07.002Z,61.28
2023-05-17T05:01:35.488Z,60.86
2023-05-17T05:04:07.286Z,61.14
2023-05-17T05:06:35.397Z,61.23
2023-05-17T05:09:04.323Z,61.19
2023-05-17T05:11:32.370Z,60.97
2023-05-17T05:14:00.184Z,61.12
2023-05-17T05:16:28.254Z,61.18
2023-05-17T05:18:56.270Z,61.74
2023-05-17T05:21:24.345Z,62.49
2023-05-17T05:23:52.627Z,59.59
2023-05-17T05:26:20.518Z,57.11
2023-05-17T05:28:48.608Z,57.46
2023-05-17T05:31:16.508Z,58.01
2023-05-17T05:33:44.593Z,58.94
2023-05-17T05:36:12.648Z,59.37
2023-05-17T05:38:40.545Z,59.27
2023-05-17T05:41:08.371Z,59.82
2023-05-17T05:43:37.469Z,60.46
2023-05-17T05:46:05.568Z,60.63
2023-05-17T05:48:33.446Z,60.82
2023-05-17T05:51:01.301Z,60.79
2023-05-17T05:53:29.555Z,61.68
2023-05-17T05:55:57.414Z,60.89
2023-05-17T05:58:25.324Z,62.06
2023-05-17T06:00:53.150Z,61.30
2023-05-17T06:03:21.442Z,60.99
2023-05-17T06:05:49.453Z,61.03
2023-05-17T06:08:17.439Z,60.82
2023-05-17T06:10:46.435Z,60.57
2023-05-17T06:13:14.432Z,59.97
2023-05-17T06:15:42.688Z,60.01
2023-05-17T06:18:10.588Z,61.40
2023-05-17T06:20:38.549Z,60.98
2023-05-17T06:23:06.702Z,59.25
2023-05-17T06:25:34.520Z,59.40
2023-05-17T06:28:04.366Z,56.10
2023-05-17T06:30:32.652Z,54.66
2023-05-17T06:33:00.909Z,54.57
2023-05-17T06:35:35.264Z,53.29
2023-05-17T06:38:08.732Z,54.96
2023-05-17T06:40:36.871Z,54.00
2023-05-17T06:43:05.648Z,53.22
2023-05-17T06:45:33.638Z,53.05
2023-05-17T06:48:01.670Z,52.79
2023-05-17T06:50:30.753Z,52.65
2023-05-17T06:52:59.062Z,52.91
2023-05-17T06:55:27.678Z,53.81
2023-05-17T06:57:56.939Z,54.39
2023-05-17T07:00:25.154Z,54.61
2023-05-17T07:02:53.261Z,54.81
2023-05-17T07:05:24.514Z,54.79
2023-05-17T07:07:52.768Z,54.63
2023-05-17T07:10:21.189Z,54.88
2023-05-17T07:12:49.100Z,55.42
2023-05-17T07:15:17.197Z,54.73
2023-05-17T07:17:45.174Z,55.33
2023-05-17T07:20:14.806Z,55.67
2023-05-17T07:22:42.817Z,56.13
2023-05-17T07:25:10.898Z,56.03
2023-05-17T07:27:38.742Z,55.27
2023-05-17T07:30:07.686Z,55.34
2023-05-17T07:32:35.534Z,55.03
2023-05-17T07:35:03.788Z,55.22
2023-05-17T07:37:31.622Z,55.44
2023-05-17T07:39:59.493Z,55.61
2023-05-17T07:42:27.429Z,54.98
2023-05-17T07:44:55.203Z,55.28
2023-05-17T07:47:23.149Z,53.97
2023-05-17T07:49:51.107Z,53.74
2023-05-17T07:52:19.091Z,53.43
2023-05-17T07:54:46.889Z,53.98
2023-05-17T07:57:14.706Z,54.28
2023-05-17T07:59:42.487Z,54.38
2023-05-17T08:02:10.513Z,53.99
2023-05-17T08:04:38.643Z,54.45
2023-05-17T08:07:06.747Z,54.11
2023-05-17T08:09:34.645Z,53.68
2023-05-17T08:12:02.603Z,54.00
2023-05-17T08:14:30.672Z,52.12
2023-05-17T08:16:58.639Z,50.61
2023-05-17T08:19:26.732Z,50.30
2023-05-17T08:21:54.811Z,50.69
2023-05-17T08:24:22.752Z,51.49
2023-05-17T08:26:50.920Z,51.90
2023-05-17T08:29:18.961Z,52.19
2023-05-17T08:31:46.840Z,51.71
2023-05-17T08:34:14.869Z,51.79
2023-05-17T08:36:42.963Z,51.62
2023-05-17T08:39:10.866Z,51.70
2023-05-17T08:41:41.191Z,51.92
2023-05-17T08:44:09.539Z,52.08
2023-05-17T08:46:40.022Z,52.96
2023-05-17T08:49:08.287Z,53.64
2023-05-17T08:51:36.466Z,53.99
2023-05-17T08:54:08.438Z,54.34
2023-05-17T08:56:39.549Z,54.47
2023-05-17T08:59:10.403Z,54.67
2023-05-17T09:01:43.605Z,54.05
2023-05-17T09:04:11.758Z,53.49
2023-05-17T09:06:39.609Z,53.99
2023-05-17T09:09:07.554Z,54.85
2023-05-17T09:11:35.818Z,53.84
2023-05-17T09:14:06.485Z,52.87
2023-05-17T09:16:37.469Z,53.23
2023-05-17T09:19:07.774Z,53.29
2023-05-17T09:21:37.027Z,53.48
2023-05-17T09:24:07.937Z,53.94
2023-05-17T09:26:45.444Z,53.79
2023-05-17T09:29:16.973Z,54.17
2023-05-17T09:31:45.153Z,53.97
2023-05-17T09:34:13.346Z,53.90
2023-05-17T09:36:44.578Z,53.70
2023-05-17T09:39:14.679Z,53.78
2023-05-17T09:41:45.336Z,53.93
2023-05-17T09:44:14.725Z,54.33
2023-05-17T09:46:48.076Z,55.16
2023-05-17T09:49:17.651Z,56.02
2023-05-17T09:51:50.094Z,55.63
2023-05-17T09:54:18.554Z,55.42
2023-05-17T09:56:55.093Z,55.90
2023-05-17T09:59:23.644Z,55.47
2023-05-17T10:01:51.678Z,54.77
2023-05-17T10:04:23.231Z,54.66
2023-05-17T10:06:52.442Z,54.74
2023-05-17T10:09:22.830Z,55.47
2023-05-17T10:11:52.921Z,55.41
2023-05-17T10:14:27.708Z,55.28
2023-05-17T10:16:56.352Z,55.17
2023-05-17T10:19:25.793Z,55.16
2023-05-17T10:21:54.764Z,55.31
2023-05-17T10:24:23.320Z,55.21
2023-05-17T10:26:52.004Z,55.24
2023-05-17T10:29:21.360Z,55.26
2023-05-17T10:31:51.320Z,55.37
2023-05-17T10:34:20.689Z,55.65
2023-05-17T10:36:52.198Z,56.11
2023-05-17T10:39:22.050Z,56.73
2023-05-17T10:41:53.006Z,56.78
2023-05-17T10:44:21.964Z,57.19
2023-05-17T10:46:57.823Z,56.83
2023-05-17T10:49:37.553Z,56.12
2023-05-17T10:52:13.177Z,55.93
2023-05-17T10:54:43.532Z,56.29
2023-05-17T10:57:42.791Z,56.48
2023-05-17T11:00:22.202Z,55.34
2023-05-17T11:02:50.914Z,55.03
2023-05-17T11:05:27.974Z,54.99
2023-05-17T11:08:17.978Z,54.25
2023-05-17T11:11:25.235Z,54.37
2023-05-17T11:13:56.317Z,54.57
2023-05-17T11:16:38.170Z,54.18
2023-05-17T11:19:11.259Z,54.10
2023-05-17T11:21:49.174Z,54.26
2023-05-17T11:24:25.816Z,54.01
2023-05-17T11:26:55.472Z,54.21
2023-05-17T11:29:29.250Z,53.51
2023-05-17T11:31:57.445Z,52.49
2023-05-17T11:34:26.973Z,51.80
2023-05-17T11:36:56.657Z,50.88
2023-05-17T11:39:25.684Z,51.39
2023-05-17T11:41:57.904Z,51.95
2023-05-17T11:44:31.176Z,52.07
2023-05-17T11:47:10.072Z,51.74
2023-05-17T11:49:39.135Z,51.56
2023-05-17T11:52:08.148Z,51.91
2023-05-17T11:54:39.087Z,51.78
2023-05-17T11:57:07.020Z,52.81
2023-05-17T11:59:43.000Z,53.21
2023-05-17T12:02:11.400Z,53.04
2023-05-17T12:04:39.892Z,53.27
2023-05-17T12:07:11.180Z,53.14
2023-05-17T12:09:40.646Z,52.95
2023-05-17T12:12:08.837Z,52.63
2023-05-17T12:14:37.243Z,52.30
2023-05-17T12:17:09.471Z,52.64
2023-05-17T12:19:37.468Z,52.87
2023-05-17T12:22:12.578Z,52.63
2023-05-17T12:24:43.240Z,50.80
2023-05-17T12:27:11.759Z,48.95
2023-05-17T12:29:40.441Z,47.43
2023-05-17T12:32:10.682Z,47.64
2023-05-17T12:34:38.850Z,46.10
2023-05-17T12:37:10.821Z,45.37
2023-05-17T12:39:39.901Z,45.25
2023-05-17T12:42:09.119Z,45.76
2023-05-17T12:44:37.245Z,45.95
2023-05-17T12:47:05.403Z,46.05
2023-05-17T12:49:39.378Z,46.69
2023-05-17T12:52:07.862Z,46.64
2023-05-17T12:54:36.361Z,46.80
2023-05-17T12:57:17.183Z,46.88
2023-05-17T12:59:54.489Z,46.95
2023-05-17T13:02:23.925Z,46.62
2023-05-17T13:04:52.170Z,46.56
2023-05-17T13:07:24.431Z,46.14
2023-05-17T13:09:52.684Z,46.52
2023-05-17T13:12:24.552Z,46.34
2023-05-17T13:14:54.615Z,46.82
2023-05-17T13:17:27.844Z,46.85
2023-05-17T13:19:57.915Z,46.95
2023-05-17T13:22:26.757Z,45.98
2023-05-17T13:24:55.262Z,46.43
2023-05-17T13:27:23.251Z,46.42
2023-05-17T13:29:51.141Z,46.29
2023-05-17T13:32:19.268Z,46.57
2023-05-17T13:34:47.052Z,45.59
2023-05-17T13:37:14.935Z,45.76
2023-05-17T13:39:43.131Z,45.93
2023-05-17T13:42:12.660Z,46.26
2023-05-17T13:44:40.833Z,46.38
2023-05-17T13:47:08.754Z,46.16
2023-05-17T13:49:37.296Z,46.16
2023-05-17T13:52:09.043Z,46.32
2023-05-17T13:54:37.203Z,45.78
2023-05-17T13:57:06.605Z,45.71
2023-05-17T13:59:34.435Z,45.85
2023-05-17T14:02:02.352Z,45.76
2023-05-17T14:04:30.375Z,45.54
2023-05-17T14:06:58.514Z,46.20
2023-05-17T14:09:26.412Z,45.70
2023-05-17T14:11:54.282Z,45.37
2023-05-17T14:14:25.026Z,45.73
2023-05-17T14:16:52.886Z,45.94
2023-05-17T14:19:21.238Z,46.10
2023-05-17T14:21:50.234Z,46.07
2023-05-17T14:24:18.292Z,46.02
2023-05-17T14:26:46.195Z,45.94
2023-05-17T14:29:14.213Z,46.25
2023-05-17T14:31:42.466Z,45.90
2023-05-17T14:34:11.972Z,45.90
2023-05-17T14:36:39.830Z,45.41
2023-05-17T14:39:07.779Z,45.66
2023-05-17T14:41:36.033Z,46.08
2023-05-17T14:44:04.149Z,46.40
2023-05-17T14:46:32.017Z,46.58
2023-05-17T14:49:00.091Z,46.79
2023-05-17T14:51:27.983Z,46.59
2023-05-17T14:53:55.889Z,46.09
2023-05-17T14:56:24.558Z,45.94
2023-05-17T14:58:52.730Z,45.65
2023-05-17T15:01:21.164Z,45.83
2023-05-17T15:03:49.138Z,46.13
2023-05-17T15:06:17.340Z,46.30
2023-05-17T15:08:45.700Z,45.85
2023-05-17T15:11:14.346Z,45.00
2023-05-17T15:13:42.701Z,44.80
2023-05-17T15:16:10.623Z,44.98
2023-05-17T15:18:38.602Z,45.05
2023-05-17T15:21:06.695Z,44.97
2023-05-17T15:23:34.558Z,45.02
2023-05-17T15:26:02.445Z,45.76
2023-05-17T15:28:30.799Z,45.45
2023-05-17T15:31:03.228Z,44.82
2023-05-17T15:33:32.234Z,44.44
2023-05-17T15:36:00.254Z,45.03
2023-05-17T15:38:28.112Z,44.94
2023-05-17T15:41:04.194Z,44.70
2023-05-17T15:43:34.076Z,44.75
2023-05-17T15:46:02.228Z,44.84
2023-05-17T15:48:30.273Z,45.10
2023-05-17T15:50:58.642Z,44.98
2023-05-17T15:53:28.225Z,44.97
2023-05-17T15:55:56.426Z,45.19
2023-05-17T15:58:33.409Z,45.04
2023-05-17T16:01:05.688Z,44.82
2023-05-17T16:03:34.141Z,45.02
2023-05-17T16:06:04.214Z,45.31
2023-05-17T16:08:32.422Z,45.25
2023-05-17T16:11:02.555Z,45.31
2023-05-17T16:13:31.150Z,45.38
2023-05-17T16:15:59.749Z,45.47
2023-05-17T16:18:27.786Z,45.52
2023-05-17T16:21:14.339Z,45.60
2023-05-17T16:23:42.300Z,45.37
2023-05-17T16:26:10.854Z,45.55
2023-05-17T16:28:38.880Z,45.43
2023-05-17T16:31:07.364Z,45.46
2023-05-17T16:33:35.433Z,45.88
2023-05-17T16:36:05.020Z,45.96
2023-05-17T16:38:32.952Z,45.76
2023-05-17T16:41:03.669Z,45.98
2023-05-17T16:43:31.670Z,46.22
2023-05-17T16:45:59.543Z,46.40
2023-05-17T16:48:27.450Z,46.77
2023-05-17T16:50:56.091Z,46.90
2023-05-17T16:53:24.045Z,46.78
2023-05-17T16:55:52.002Z,47.00
2023-05-17T16:58:20.382Z,47.08
2023-05-17T17:00:48.237Z,47.04
2023-05-17T17:03:16.201Z,47.03
2023-05-17T17:05:44.163Z,47.16
2023-05-17T17:08:12.063Z,47.28
2023-05-17T17:10:39.974Z,47.71
2023-05-17T17:13:08.291Z,47.98
2023-05-17T17:15:36.221Z,48.05
2023-05-17T17:18:04.175Z,48.24
2023-05-17T17:20:32.091Z,48.16
2023-05-17T17:23:00.140Z,48.16
2023-05-17T17:25:28.384Z,48.16
2023-05-17T17:27:56.323Z,48.27
2023-05-17T17:30:24.237Z,48.24
2023-05-17T17:32:52.354Z,48.27
2023-05-17T17:35:20.452Z,48.33
2023-05-17T17:37:48.262Z,48.07
2023-05-17T17:40:16.203Z,48.57
2023-05-17T17:42:44.023Z,48.79
2023-05-17T17:45:11.810Z,48.81
2023-05-17T17:47:39.752Z,48.93
2023-05-17T17:50:08.639Z,49.26
2023-05-17T17:52:37.581Z,49.43
2023-05-17T17:55:07.103Z,49.48
2023-05-17T17:57:35.217Z,49.51
2023-05-17T18:00:04.357Z,49.68
2023-05-17T18:02:32.599Z,49.50
2023-05-17T18:05:01.065Z,49.64
2023-05-17T18:07:29.242Z,49.75
2023-05-17T18:09:57.272Z,49.73
2023-05-17T18:12:27.651Z,49.80
2023-05-17T18:14:55.927Z,50.00
2023-05-17T18:17:24.074Z,50.05
2023-05-17T18:19:52.854Z,50.10
2023-05-17T18:22:20.825Z,50.15
2023-05-17T18:24:52.462Z,50.23
2023-05-17T18:27:20.525Z,50.46
2023-05-17T18:29:48.494Z,50.64
2023-05-17T18:32:16.868Z,50.46
2023-05-17T18:34:44.968Z,50.43
2023-05-17T18:37:12.908Z,50.52
2023-05-17T18:39:40.887Z,50.43
2023-05-17T18:42:08.955Z,50.35
2023-05-17T18:44:37.066Z,50.43
2023-05-17T18:47:05.403Z,50.23
2023-05-17T18:49:33.360Z,50.42
2023-05-17T18:52:01.327Z,50.70
2023-05-17T18:54:29.761Z,50.82
2023-05-17T18:56:57.815Z,51.16
2023-05-17T18:59:25.743Z,51.36
2023-05-17T19:02:04.729Z,51.55
2023-05-17T19:04:33.600Z,51.64
2023-05-17T19:07:02.143Z,51.75
2023-05-17T19:09:32.271Z,51.81
2023-05-17T19:12:07.622Z,51.92
2023-05-17T19:14:38.542Z,52.10
2023-05-17T19:17:10.876Z,52.22
2023-05-17T19:19:39.001Z,52.33
2023-05-17T19:22:09.933Z,52.55
2023-05-17T19:24:40.780Z,52.71
2023-05-17T19:27:08.797Z,52.93
2023-05-17T19:29:36.800Z,53.10
2023-05-17T19:32:06.134Z,53.33
2023-05-17T19:34:34.116Z,53.43
2023-05-17T19:37:02.151Z,53.67
2023-05-17T19:39:30.517Z,53.91
2023-05-17T19:41:58.351Z,54.27
2023-05-17T19:44:26.349Z,54.25
2023-05-17T19:47:01.715Z,54.59
2023-05-17T19:49:36.938Z,54.67
2023-05-17T19:52:09.027Z,54.89
2023-05-17T19:54:37.110Z,55.03
2023-05-17T19:57:05.756Z,55.18
2023-05-17T19:59:34.191Z,55.31
2023-05-17T20:02:02.464Z,55.29
2023-05-17T20:04:30.439Z,55.31
2023-05-17T20:06:58.332Z,55.23
2023-05-17T20:09:30.270Z,55.26
2023-05-17T20:11:59.183Z,55.33
2023-05-17T20:14:27.937Z,55.36
2023-05-17T20:16:55.852Z,55.31
2023-05-17T20:19:23.995Z,55.37
2023-05-17T20:21:51.906Z,55.50
2023-05-17T20:24:22.530Z,55.55
2023-05-17T20:26:50.611Z,55.56
2023-05-17T20:29:18.516Z,55.62
2023-05-17T20:31:46.422Z,55.83
2023-05-17T20:34:14.968Z,56.06
2023-05-17T20:36:42.903Z,56.26
2023-05-17T20:39:11.081Z,56.48
2023-05-17T20:41:38.862Z,56.63
2023-05-17T20:44:06.843Z,56.75
2023-05-17T20:46:35.465Z,56.88
2023-05-17T20:49:03.443Z,56.80
2023-05-17T20:51:31.939Z,56.90
2023-05-17T20:53:59.764Z,56.93
2023-05-17T20:56:27.816Z,57.10
2023-05-17T20:58:56.260Z,57.21
2023-05-17T21:01:24.418Z,57.22
2023-05-17T21:03:52.715Z,57.45
2023-05-17T21:06:22.059Z,57.35
2023-05-17T21:08:50.351Z,57.49
2023-05-17T21:11:24.337Z,57.42
2023-05-17T21:13:52.304Z,57.51
2023-05-17T21:16:21.575Z,57.75
2023-05-17T21:18:50.283Z,57.78
2023-05-17T21:21:18.608Z,57.85
2023-05-17T21:23:46.939Z,57.87
2023-05-17T21:26:14.829Z,57.96
2023-05-17T21:28:42.785Z,57.92
2023-05-17T21:31:11.018Z,57.98
2023-05-17T21:33:38.936Z,57.92
2023-05-17T21:36:06.970Z,57.78
2023-05-17T21:38:34.870Z,57.77
2023-05-17T21:41:02.622Z,57.88
2023-05-17T21:43:30.441Z,57.95
2023-05-17T21:45:58.281Z,58.08
2023-05-17T21:48:26.398Z,58.21
2023-05-17T21:50:56.013Z,58.47
2023-05-17T21:53:23.917Z,58.27
2023-05-17T21:58:24.619Z,58.29
2023-05-17T22:00:52.646Z,58.17
2023-05-17T22:03:20.646Z,58.18
2023-05-17T22:05:49.266Z,58.27
2023-05-17T22:08:17.245Z,58.22
2023-05-17T22:10:56.816Z,58.31
2023-05-17T22:13:27.712Z,58.29
2023-05-17T22:15:57.387Z,58.39
2023-05-17T22:18:27.123Z,58.41
2023-05-17T22:20:55.299Z,58.39
2023-05-17T22:23:23.149Z,58.39
2023-05-17T22:25:51.285Z,58.39
2023-05-17T22:28:19.152Z,58.53
2023-05-17T22:30:47.085Z,58.61
2023-05-17T22:33:15.099Z,58.74
2023-05-17T22:35:43.022Z,58.80
2023-05-17T22:38:11.001Z,58.75
2023-05-17T22:40:38.952Z,58.86
2023-05-17T22:43:08.311Z,58.90
2023-05-17T22:45:38.019Z,58.87
2023-05-17T22:48:07.252Z,58.86
2023-05-17T22:50:35.104Z,58.95
2023-05-17T22:53:03.754Z,58.81
2023-05-17T22:55:32.594Z,59.06
2023-05-17T22:58:00.874Z,59.03
2023-05-17T23:00:29.194Z,59.10
2023-05-17T23:02:57.255Z,59.02
2023-05-17T23:05:25.297Z,59.07
2023-05-17T23:07:53.496Z,59.06
2023-05-17T23:10:21.950Z,59.20
2023-05-17T23:12:51.551Z,59.38
2023-05-17T23:15:20.733Z,59.44
2023-05-17T23:17:48.877Z,59.80
2023-05-17T23:20:17.207Z,59.81
2023-05-17T23:22:45.025Z,59.92
2023-05-17T23:25:13.026Z,60.12
2023-05-17T23:27:41.115Z,60.60
2023-05-17T23:30:09.465Z,60.71
2023-05-17T23:32:37.733Z,60.48
2023-05-17T23:35:05.973Z,60.70
2023-05-17T23:37:34.131Z,60.87
2023-05-17T23:40:09.466Z,60.90
2023-05-17T23:42:37.365Z,60.84
2023-05-17T23:45:05.976Z,61.01
2023-05-17T23:47:34.114Z,61.03
2023-05-17T23:50:03.377Z,61.27
2023-05-17T23:52:32.836Z,61.41
2023-05-17T23:55:01.705Z,61.50
2023-05-17T23:57:29.714Z,61.37
2023-05-17T23:59:57.990Z,61.30
